createdAt,value
2019-05-06T00:01:54.179Z,24.96
2019-05-06T00:04:24.691Z,24.96
2019-05-06T00:06:54.995Z,24.98
2019-05-06T00:09:26.909Z,24.97
2019-05-06T00:11:56.389Z,24.97
2019-05-06T00:14:25.961Z,24.97
2019-05-06T00:16:58.547Z,24.98
2019-05-06T00:19:29.738Z,24.97
2019-05-06T00:21:59.181Z,24.98
2019-05-06T00:24:34.819Z,24.97
2019-05-06T00:27:18.365Z,24.98
2019-05-06T00:29:47.907Z,24.96
2019-05-06T00:32:21.509Z,24.93
2019-05-06T00:34:51.039Z,24.90
2019-05-06T00:37:24.075Z,24.87
2019-05-06T00:40:04.630Z,24.83
2019-05-06T00:42:36.797Z,24.81
2019-05-06T00:45:07.890Z,24.78
2019-05-06T00:47:37.620Z,24.77
2019-05-06T00:50:08.147Z,24.74
2019-05-06T00:52:38.018Z,24.73
2019-05-06T00:55:07.856Z,24.71
2019-05-06T00:57:46.726Z,24.71
2019-05-06T01:00:24.468Z,24.68
2019-05-06T01:02:54.382Z,24.68
2019-05-06T01:05:24.517Z,24.66
2019-05-06T01:07:54.900Z,24.67
2019-05-06T01:10:24.935Z,24.65
2019-05-06T01:13:06.382Z,24.65
2019-05-06T01:15:35.844Z,24.64
2019-05-06T01:18:06.168Z,24.62
2019-05-06T01:20:35.719Z,24.62
2019-05-06T01:23:05.235Z,24.62
2019-05-06T01:25:37.736Z,24.61
2019-05-06T01:28:07.409Z,24.60
2019-05-06T01:30:40.036Z,24.58
2019-05-06T01:33:10.917Z,24.57
2019-05-06T01:35:44.364Z,24.55
2019-05-06T01:38:28.872Z,24.55
2019-05-06T01:41:26.477Z,24.53
2019-05-06T01:43:56.116Z,24.52
2019-05-06T01:46:25.922Z,24.52
2019-05-06T01:48:55.522Z,24.51
2019-05-06T01:51:25.120Z,24.51
2019-05-06T01:53:54.720Z,24.51
2019-05-06T01:56:24.319Z,24.50
2019-05-06T01:58:53.845Z,24.50
2019-05-06T02:01:25.121Z,24.49
2019-05-06T02:03:54.730Z,24.48
2019-05-06T02:06:24.951Z,24.48
2019-05-06T02:08:55.103Z,24.47
2019-05-06T02:11:24.692Z,24.47
2019-05-06T02:13:54.194Z,24.47
2019-05-06T02:16:24.158Z,24.47
2019-05-06T02:18:54.164Z,24.47
2019-05-06T02:21:43.697Z,24.45
2019-05-06T02:24:24.204Z,24.44
2019-05-06T02:26:54.216Z,24.42
2019-05-06T02:29:26.316Z,24.40
2019-05-06T02:32:31.509Z,24.40
2019-05-06T02:35:30.692Z,24.39
2019-05-06T02:38:07.539Z,24.39
2019-05-06T02:40:37.426Z,24.38
2019-05-06T02:43:06.992Z,24.38
2019-05-06T02:45:36.839Z,24.37
2019-05-06T02:48:13.777Z,24.37
2019-05-06T02:50:59.059Z,24.37
2019-05-06T02:53:28.591Z,24.38
2019-05-06T02:55:58.095Z,24.38
2019-05-06T02:58:27.580Z,24.37
2019-05-06T03:00:59.199Z,24.37
2019-05-06T03:03:28.647Z,24.36
2019-05-06T03:05:58.087Z,24.37
2019-05-06T03:08:32.699Z,24.37
2019-05-06T03:11:04.303Z,24.38
2019-05-06T03:13:34.566Z,24.38
2019-05-06T03:16:05.821Z,24.37
2019-05-06T03:18:35.633Z,24.38
2019-05-06T03:21:16.906Z,24.39
2019-05-06T03:23:53.964Z,24.39
2019-05-06T03:26:23.555Z,24.41
2019-05-06T03:28:56.310Z,24.42
2019-05-06T03:31:26.743Z,24.43
2019-05-06T03:34:22.195Z,24.44
2019-05-06T03:36:34.387Z,24.48
2019-05-06T03:38:59.217Z,24.53
2019-05-06T03:41:28.742Z,24.58
2019-05-06T03:43:58.410Z,24.64
2019-05-06T03:46:46.100Z,24.70
2019-05-06T03:49:15.598Z,24.74
2019-05-06T03:51:48.781Z,24.82
2019-05-06T03:54:19.002Z,24.88
2019-05-06T03:56:50.294Z,24.94
2019-05-06T03:59:23.397Z,24.99
2019-05-06T04:01:54.917Z,25.07
2019-05-06T04:04:24.417Z,25.12
2019-05-06T04:06:54.181Z,25.18
2019-05-06T04:09:25.620Z,25.23
2019-05-06T04:11:55.789Z,25.28
2019-05-06T04:14:25.939Z,25.31
2019-05-06T04:17:03.483Z,25.36
2019-05-06T04:19:45.509Z,25.40
2019-05-06T04:22:27.603Z,25.44
2019-05-06T04:25:06.113Z,25.49
2019-05-06T04:27:48.237Z,25.54
2019-05-06T04:30:18.628Z,25.58
2019-05-06T04:32:48.379Z,25.64
2019-05-06T04:35:18.245Z,25.68
2019-05-06T04:37:47.944Z,25.71
2019-05-06T04:40:17.878Z,25.76
2019-05-06T04:42:47.851Z,25.80
2019-05-06T04:45:17.789Z,25.84
2019-05-06T04:47:47.428Z,25.88
2019-05-06T04:50:17.089Z,25.93
2019-05-06T04:52:50.347Z,25.97
2019-05-06T04:55:23.091Z,26.00
2019-05-06T04:57:53.575Z,26.03
2019-05-06T05:00:23.488Z,26.06
2019-05-06T05:02:54.983Z,26.09
2019-05-06T05:05:24.398Z,26.13
2019-05-06T05:07:54.187Z,26.16
2019-05-06T05:10:27.819Z,26.20
2019-05-06T05:13:08.659Z,26.24
2019-05-06T05:16:03.266Z,26.27
2019-05-06T05:18:45.653Z,26.28
2019-05-06T05:21:15.328Z,26.31
2019-05-06T05:23:45.811Z,26.31
2019-05-06T05:26:15.606Z,26.32
2019-05-06T05:28:48.228Z,26.32
2019-05-06T05:31:17.911Z,26.33
2019-05-06T05:33:47.485Z,26.34
2019-05-06T05:36:17.406Z,26.34
2019-05-06T05:38:47.140Z,26.36
2019-05-06T05:41:17.071Z,26.38
2019-05-06T05:44:22.711Z,26.38
2019-05-06T05:46:52.530Z,26.39
2019-05-06T05:49:32.457Z,26.38
2019-05-06T05:52:03.706Z,26.37
2019-05-06T05:54:33.353Z,26.38
2019-05-06T05:57:03.382Z,26.38
2019-05-06T05:59:33.160Z,26.41
2019-05-06T06:02:04.102Z,26.44
2019-05-06T06:04:33.929Z,26.45
2019-05-06T06:07:03.390Z,26.47
2019-05-06T06:09:43.621Z,26.49
2019-05-06T06:12:13.233Z,26.52
2019-05-06T06:14:55.765Z,26.54
2019-05-06T06:17:45.261Z,26.57
2019-05-06T06:20:32.783Z,26.60
2019-05-06T06:23:09.849Z,26.61
2019-05-06T06:25:42.394Z,26.61
2019-05-06T06:28:12.037Z,26.60
2019-05-06T06:30:52.038Z,26.59
2019-05-06T06:33:22.320Z,26.58
2019-05-06T06:36:02.848Z,26.57
2019-05-06T06:38:54.313Z,26.57
2019-05-06T06:41:24.206Z,26.57
2019-05-06T06:43:57.962Z,26.57
2019-05-06T06:46:27.402Z,26.59
2019-05-06T06:48:57.028Z,26.59
2019-05-06T06:51:26.486Z,26.61
2019-05-06T06:53:57.524Z,26.64
2019-05-06T06:56:42.415Z,26.66
2019-05-06T06:59:22.217Z,26.66
2019-05-06T07:02:17.880Z,26.67
2019-05-06T07:04:54.066Z,26.67
2019-05-06T07:07:40.176Z,26.67
2019-05-06T07:09:59.030Z,26.64
2019-05-06T07:12:28.703Z,26.62
2019-05-06T07:15:02.243Z,26.58
2019-05-06T07:17:32.772Z,26.54
2019-05-06T07:20:06.080Z,26.51
2019-05-06T07:22:39.076Z,26.46
2019-05-06T07:25:12.689Z,26.42
2019-05-06T07:27:45.047Z,26.39
2019-05-06T07:30:15.341Z,26.35
2019-05-06T07:32:44.822Z,26.34
2019-05-06T07:35:14.515Z,26.34
2019-05-06T07:37:43.987Z,26.34
2019-05-06T07:40:22.049Z,26.38
2019-05-06T07:42:53.245Z,26.38
2019-05-06T07:45:29.619Z,26.41
2019-05-06T07:48:03.613Z,26.44
2019-05-06T07:50:33.448Z,26.44
2019-05-06T07:53:08.529Z,26.45
2019-05-06T07:55:39.219Z,26.44
2019-05-06T07:58:08.746Z,26.41
2019-05-06T08:00:38.404Z,26.37
2019-05-06T08:03:07.884Z,26.33
2019-05-06T08:05:54.723Z,26.29
2019-05-06T08:08:14.415Z,26.27
2019-05-06T08:10:43.849Z,26.24
2019-05-06T08:13:13.368Z,26.22
2019-05-06T08:15:42.968Z,26.22
2019-05-06T08:18:23.017Z,26.23
2019-05-06T08:20:52.603Z,26.24
2019-05-06T08:23:28.488Z,26.26
2019-05-06T08:26:10.114Z,26.28
2019-05-06T08:28:38.574Z,26.29
2019-05-06T08:31:02.405Z,26.30
2019-05-06T08:33:32.716Z,26.30
2019-05-06T08:36:11.681Z,26.30
2019-05-06T08:38:53.256Z,26.29
2019-05-06T08:41:22.870Z,26.30
2019-05-06T08:43:52.973Z,26.30
2019-05-06T08:46:23.427Z,26.30
2019-05-06T08:48:53.302Z,26.30
2019-05-06T08:51:42.632Z,26.32
2019-05-06T08:54:18.210Z,26.34
2019-05-06T08:56:47.826Z,26.35
2019-05-06T08:59:17.287Z,26.34
2019-05-06T09:01:49.029Z,26.38
2019-05-06T09:04:18.510Z,26.38
2019-05-06T09:06:47.981Z,26.38
2019-05-06T09:09:17.435Z,26.39
2019-05-06T09:11:46.976Z,26.38
2019-05-06T09:14:16.464Z,26.37
2019-05-06T09:16:45.966Z,26.33
2019-05-06T09:19:15.455Z,26.31
2019-05-06T09:21:46.389Z,26.28
2019-05-06T09:24:16.035Z,26.25
2019-05-06T09:27:12.324Z,26.21
2019-05-06T09:29:52.211Z,26.18
2019-05-06T09:32:36.049Z,26.17
2019-05-06T09:35:04.086Z,26.15
2019-05-06T09:37:33.660Z,26.13
2019-05-06T09:40:03.329Z,26.11
2019-05-06T09:42:32.741Z,26.10
2019-05-06T09:45:02.503Z,26.09
2019-05-06T09:47:53.033Z,26.08
2019-05-06T09:50:37.620Z,26.07
2019-05-06T09:53:09.317Z,26.06
2019-05-06T09:56:03.950Z,26.05
2019-05-06T09:58:34.642Z,26.05
2019-05-06T10:01:04.647Z,26.04
2019-05-06T10:03:34.175Z,26.02
2019-05-06T10:06:03.702Z,26.01
2019-05-06T10:08:33.160Z,25.99
2019-05-06T10:11:03.324Z,25.98
2019-05-06T10:13:33.010Z,25.96
2019-05-06T10:16:03.121Z,25.94
2019-05-06T10:18:32.701Z,25.92
2019-05-06T10:21:02.426Z,25.91
2019-05-06T10:23:32.762Z,25.89
2019-05-06T10:26:04.529Z,25.87
2019-05-06T10:28:52.362Z,25.87
2019-05-06T10:31:22.039Z,25.85
2019-05-06T10:34:09.444Z,25.82
2019-05-06T10:36:48.158Z,25.82
2019-05-06T10:39:20.362Z,25.79
2019-05-06T10:41:56.002Z,25.76
2019-05-06T10:44:38.851Z,25.75
2019-05-06T10:47:08.378Z,25.74
2019-05-06T10:49:37.951Z,25.72
2019-05-06T10:52:27.443Z,25.70
2019-05-06T10:54:56.985Z,25.70
2019-05-06T10:57:36.530Z,25.69
2019-05-06T11:00:07.693Z,25.68
2019-05-06T11:02:59.437Z,25.66
2019-05-06T11:05:29.094Z,25.65
2019-05-06T11:07:58.755Z,25.64
2019-05-06T11:10:35.511Z,25.64
2019-05-06T11:12:59.605Z,25.64
2019-05-06T11:15:29.093Z,25.63
2019-05-06T11:17:58.691Z,25.62
2019-05-06T11:20:28.186Z,25.62
2019-05-06T11:22:57.697Z,25.61
2019-05-06T11:25:27.239Z,25.59
2019-05-06T11:27:56.724Z,25.59
2019-05-06T11:30:45.214Z,25.57
2019-05-06T11:33:42.636Z,25.56
2019-05-06T11:36:19.833Z,25.54
2019-05-06T11:38:49.360Z,25.53
2019-05-06T11:41:18.938Z,25.51
2019-05-06T11:43:48.494Z,25.49
2019-05-06T11:46:17.997Z,25.49
2019-05-06T11:48:47.506Z,25.48
2019-05-06T11:51:19.706Z,25.48
2019-05-06T11:53:49.189Z,25.47
2019-05-06T11:56:18.721Z,25.46
2019-05-06T11:58:53.338Z,25.46
2019-05-06T12:01:33.003Z,25.44
2019-05-06T12:04:02.977Z,25.44
2019-05-06T12:06:33.154Z,25.44
2019-05-06T12:09:06.419Z,25.42
2019-05-06T12:11:35.122Z,25.42
2019-05-06T12:14:04.760Z,25.41
2019-05-06T12:16:34.470Z,25.42
2019-05-06T12:19:04.048Z,25.41
2019-05-06T12:21:33.543Z,25.40
2019-05-06T12:24:03.182Z,25.40
2019-05-06T12:26:32.721Z,25.40
2019-05-06T12:29:02.441Z,25.38
2019-05-06T12:31:32.902Z,25.38
2019-05-06T12:34:02.900Z,25.38
2019-05-06T12:36:32.828Z,25.37
2019-05-06T12:39:24.878Z,25.36
2019-05-06T12:42:16.025Z,25.35
2019-05-06T12:44:53.621Z,25.34
2019-05-06T12:47:42.703Z,25.32
2019-05-06T12:50:12.466Z,25.31
2019-05-06T12:52:44.149Z,25.30
2019-05-06T12:55:20.713Z,25.28
2019-05-06T12:57:44.898Z,25.28
2019-05-06T13:00:15.682Z,25.27
2019-05-06T13:02:45.166Z,25.25
2019-05-06T13:05:15.289Z,25.24
2019-05-06T13:07:46.684Z,25.23
2019-05-06T13:10:22.780Z,25.23
2019-05-06T13:13:16.507Z,25.21
2019-05-06T13:15:46.100Z,25.21
2019-05-06T13:18:15.747Z,25.21
2019-05-06T13:20:49.818Z,25.20
2019-05-06T13:23:39.478Z,25.20
2019-05-06T13:26:09.203Z,25.18
2019-05-06T13:28:42.589Z,25.18
2019-05-06T13:31:20.003Z,25.18
2019-05-06T13:33:54.875Z,25.16
2019-05-06T13:36:24.710Z,25.16
2019-05-06T13:39:09.535Z,25.15
2019-05-06T13:41:25.638Z,25.15
2019-05-06T13:44:23.298Z,25.14
2019-05-06T13:46:54.640Z,25.13
2019-05-06T13:49:49.083Z,25.11
2019-05-06T13:52:22.926Z,25.11
2019-05-06T13:54:53.046Z,25.10
2019-05-06T13:57:22.882Z,25.08
2019-05-06T13:59:53.233Z,25.06
2019-05-06T14:02:45.021Z,25.04
2019-05-06T14:05:14.789Z,25.02
2019-05-06T14:07:44.377Z,24.99
2019-05-06T14:10:15.309Z,24.97
2019-05-06T14:12:44.834Z,24.96
2019-05-06T14:15:15.156Z,24.94
2019-05-06T14:17:44.705Z,24.92
2019-05-06T14:20:14.784Z,24.90
2019-05-06T14:22:44.273Z,24.89
2019-05-06T14:25:37.945Z,24.88
2019-05-06T14:28:32.527Z,24.86
2019-05-06T14:31:05.981Z,24.84
2019-05-06T14:33:35.436Z,24.81
2019-05-06T14:36:04.967Z,24.79
2019-05-06T14:38:34.469Z,24.78
2019-05-06T14:41:12.869Z,24.77
2019-05-06T14:43:42.831Z,24.76
2019-05-06T14:46:12.634Z,24.75
2019-05-06T14:48:43.658Z,24.73
2019-05-06T14:51:13.370Z,24.72
2019-05-06T14:53:43.680Z,24.72
2019-05-06T14:56:32.408Z,24.70
2019-05-06T14:59:06.332Z,24.67
2019-05-06T15:01:38.006Z,24.66
2019-05-06T15:04:07.455Z,24.65
2019-05-06T15:06:37.165Z,24.64
2019-05-06T15:09:09.348Z,24.64
2019-05-06T15:11:38.826Z,24.62
2019-05-06T15:14:08.537Z,24.60
2019-05-06T15:16:38.094Z,24.60
2019-05-06T15:19:07.563Z,24.58
2019-05-06T15:21:38.867Z,24.56
2019-05-06T15:24:08.438Z,24.56
2019-05-06T15:26:37.970Z,24.56
2019-05-06T15:29:07.553Z,24.55
2019-05-06T15:31:52.698Z,24.55
2019-05-06T15:34:27.073Z,24.53
2019-05-06T15:37:06.061Z,24.52
2019-05-06T15:39:35.661Z,24.51
2019-05-06T15:42:05.236Z,24.50
2019-05-06T15:44:35.485Z,24.50
2019-05-06T15:47:05.172Z,24.49
2019-05-06T15:49:34.738Z,24.49
2019-05-06T15:52:04.212Z,24.48
2019-05-06T15:54:34.169Z,24.48
2019-05-06T15:57:03.741Z,24.47
2019-05-06T15:59:33.707Z,24.48
2019-05-06T16:02:03.354Z,24.47
2019-05-06T16:04:32.941Z,24.48
2019-05-06T16:07:02.965Z,24.48
2019-05-06T16:09:33.031Z,24.48
2019-05-06T16:12:03.024Z,24.48
2019-05-06T16:14:34.847Z,24.48
2019-05-06T16:17:04.241Z,24.48
2019-05-06T16:19:33.997Z,24.49
2019-05-06T16:22:04.235Z,24.50
2019-05-06T16:24:42.833Z,24.51
2019-05-06T16:27:12.526Z,24.52
2019-05-06T16:29:42.941Z,24.54
2019-05-06T16:32:12.929Z,24.55
2019-05-06T16:34:43.150Z,24.56
2019-05-06T16:37:13.523Z,24.58
2019-05-06T16:39:43.069Z,24.59
2019-05-06T16:42:13.095Z,24.61
2019-05-06T16:44:45.174Z,24.63
2019-05-06T16:47:32.939Z,24.64
2019-05-06T16:50:02.516Z,24.66
2019-05-06T16:52:33.352Z,24.66
2019-05-06T16:55:03.559Z,24.66
2019-05-06T16:57:33.379Z,24.66
2019-05-06T17:00:03.888Z,24.65
2019-05-06T17:02:56.489Z,24.64
2019-05-06T17:05:33.673Z,24.63
2019-05-06T17:08:03.432Z,24.62
2019-05-06T17:10:32.952Z,24.59
2019-05-06T17:13:03.055Z,24.57
2019-05-06T17:15:32.947Z,24.54
2019-05-06T17:18:03.259Z,24.54
2019-05-06T17:20:33.046Z,24.52
2019-05-06T17:23:03.092Z,24.50
2019-05-06T17:25:33.721Z,24.48
2019-05-06T17:28:25.517Z,24.47
2019-05-06T17:31:13.236Z,24.45
2019-05-06T17:33:43.692Z,24.43
2019-05-06T17:36:15.002Z,24.42
2019-05-06T17:38:46.980Z,24.41
2019-05-06T17:41:16.656Z,24.40
2019-05-06T17:43:46.203Z,24.39
2019-05-06T17:46:17.855Z,24.39
2019-05-06T17:49:09.316Z,24.37
2019-05-06T17:52:02.829Z,24.37
2019-05-06T17:54:32.625Z,24.36
2019-05-06T17:57:04.432Z,24.34
2019-05-06T17:59:37.157Z,24.33
2019-05-06T18:02:08.682Z,24.32
2019-05-06T18:04:38.303Z,24.31
2019-05-06T18:07:07.867Z,24.30
2019-05-06T18:09:37.426Z,24.30
2019-05-06T18:12:08.075Z,24.29
2019-05-06T18:14:37.551Z,24.27
2019-05-06T18:17:07.059Z,24.28
2019-05-06T18:19:36.595Z,24.27
2019-05-06T18:22:06.201Z,24.26
2019-05-06T18:24:35.698Z,24.26
2019-05-06T18:27:05.447Z,24.26
2019-05-06T18:29:34.929Z,24.24
2019-05-06T18:32:04.559Z,24.24
2019-05-06T18:34:34.063Z,24.22
2019-05-06T18:37:03.770Z,24.21
2019-05-06T18:39:34.055Z,24.21
2019-05-06T18:42:15.455Z,24.20
2019-05-06T18:44:35.021Z,24.19
2019-05-06T18:47:05.148Z,24.18
2019-05-06T18:49:34.738Z,24.17
2019-05-06T18:52:04.289Z,24.16
2019-05-06T18:54:34.131Z,24.15
2019-05-06T18:57:04.988Z,24.13
2019-05-06T18:59:36.932Z,24.13
2019-05-06T19:02:06.105Z,24.12
2019-05-06T19:04:52.143Z,24.11
2019-05-06T19:07:22.059Z,24.10
2019-05-06T19:10:15.661Z,24.09
2019-05-06T19:12:45.198Z,24.08
2019-05-06T19:15:14.955Z,24.07
2019-05-06T19:17:44.520Z,24.06
2019-05-06T19:20:14.538Z,24.05
2019-05-06T19:22:44.007Z,24.05
2019-05-06T19:25:14.663Z,24.04
2019-05-06T19:27:50.151Z,24.03
2019-05-06T19:30:19.936Z,24.02
2019-05-06T19:32:49.505Z,24.01
2019-05-06T19:35:19.105Z,24.08
2019-05-06T19:37:48.679Z,24.08
2019-05-06T19:40:18.187Z,24.05
2019-05-06T19:42:50.206Z,24.06
2019-05-06T19:45:19.307Z,24.05
2019-05-06T19:47:48.819Z,24.04
2019-05-06T19:50:21.128Z,24.02
2019-05-06T19:52:52.798Z,24.02
2019-05-06T19:55:23.103Z,24.00
2019-05-06T19:57:52.773Z,24.01
2019-05-06T20:00:22.925Z,24.00
2019-05-06T20:02:52.635Z,23.99
2019-05-06T20:05:47.031Z,24.00
2019-05-06T20:08:38.606Z,24.00
2019-05-06T20:11:16.188Z,23.98
2019-05-06T20:13:45.692Z,23.96
2019-05-06T20:16:15.226Z,23.97
2019-05-06T20:18:44.892Z,23.96
2019-05-06T20:21:14.387Z,23.96
2019-05-06T20:23:44.436Z,23.96
2019-05-06T20:26:13.971Z,23.97
2019-05-06T20:28:43.478Z,23.98
2019-05-06T20:31:15.407Z,23.98
2019-05-06T20:33:44.944Z,23.98
2019-05-06T20:36:14.493Z,23.99
2019-05-06T20:38:44.058Z,24.00
2019-05-06T20:41:16.838Z,24.00
2019-05-06T20:43:46.586Z,24.01
2019-05-06T20:46:16.132Z,23.99
2019-05-06T20:48:45.712Z,23.99
2019-05-06T20:51:16.212Z,23.98
2019-05-06T20:53:45.782Z,23.98
2019-05-06T20:56:15.397Z,23.98
2019-05-06T20:58:45.154Z,23.98
2019-05-06T21:01:14.812Z,23.98
2019-05-06T21:03:44.337Z,23.98
2019-05-06T21:06:13.995Z,23.98
2019-05-06T21:08:43.583Z,23.97
2019-05-06T21:11:25.875Z,23.98
2019-05-06T21:13:44.612Z,23.97
2019-05-06T21:16:14.250Z,23.98
2019-05-06T21:23:42.757Z,23.95
2019-05-06T21:26:13.664Z,23.94
2019-05-06T21:28:46.262Z,23.93
2019-05-06T21:31:16.166Z,23.92
2019-05-06T21:33:45.740Z,23.92
2019-05-06T21:36:15.255Z,23.90
2019-05-06T21:38:44.775Z,23.90
2019-05-06T21:41:17.465Z,23.89
2019-05-06T21:43:49.672Z,23.88
2019-05-06T21:46:16.825Z,23.88
2019-05-06T21:48:46.284Z,23.88
2019-05-06T21:51:15.822Z,23.86
2019-05-06T21:53:45.381Z,23.86
2019-05-06T21:56:15.270Z,23.85
2019-05-06T21:58:44.796Z,23.85
2019-05-06T22:01:14.533Z,23.86
2019-05-06T22:03:44.117Z,23.85
2019-05-06T22:06:13.821Z,23.85
2019-05-06T22:08:43.305Z,23.85
2019-05-06T22:11:12.802Z,23.85
2019-05-06T22:13:42.700Z,23.85
2019-05-06T22:16:12.630Z,23.85
2019-05-06T22:18:43.216Z,23.86
2019-05-06T22:21:25.232Z,23.85
2019-05-06T22:23:56.868Z,23.86
2019-05-06T22:26:27.167Z,23.85
2019-05-06T22:28:56.902Z,23.86
2019-05-06T22:31:27.130Z,23.86
2019-05-06T22:33:56.736Z,23.87
2019-05-06T22:36:26.218Z,23.88
2019-05-06T22:38:55.844Z,23.88
2019-05-06T22:41:25.618Z,23.89
2019-05-06T22:43:55.203Z,23.89
2019-05-06T22:46:24.875Z,23.90
2019-05-06T22:48:54.810Z,23.92
2019-05-06T22:51:24.804Z,23.92
2019-05-06T22:53:54.322Z,23.93
2019-05-06T22:56:23.793Z,23.93
2019-05-06T22:58:53.237Z,23.93
2019-05-06T23:01:44.122Z,23.93
2019-05-06T23:04:14.772Z,23.92
2019-05-06T23:06:44.295Z,23.91
2019-05-06T23:09:13.941Z,23.91
2019-05-06T23:11:43.384Z,23.91
2019-05-06T23:14:27.047Z,23.92
2019-05-06T23:16:44.342Z,23.91
2019-05-06T23:19:13.755Z,23.92
2019-05-06T23:21:43.334Z,23.93
2019-05-06T23:24:13.262Z,23.92
2019-05-06T23:26:42.940Z,23.92
2019-05-06T23:29:13.050Z,23.92
2019-05-06T23:31:42.757Z,23.92
2019-05-06T23:34:12.664Z,23.93
2019-05-06T23:37:25.581Z,23.93
2019-05-06T23:40:42.751Z,23.92
2019-05-06T23:43:47.710Z,23.91
2019-05-06T23:46:53.060Z,23.90
2019-05-06T23:49:58.528Z,23.88
2019-05-06T23:53:03.723Z,23.80
2019-05-06T23:56:09.069Z,23.85
2019-05-06T23:58:38.594Z,23.85
